createdAt,value
2019-05-02T00:04:37.317Z,22.63
2019-05-02T00:09:50.562Z,26.23
2019-05-02T00:15:04.005Z,25.57
2019-05-02T00:20:21.163Z,23.33
2019-05-02T00:25:42.100Z,24.17
2019-05-02T00:30:51.357Z,23.80
2019-05-02T00:36:10.583Z,23.63
2019-05-02T00:41:37.825Z,22.03
2019-05-02T00:46:45.410Z,23.67
2019-05-02T00:52:04.845Z,22.50
2019-05-02T00:57:23.121Z,23.77
2019-05-02T01:02:57.123Z,22.83
2019-05-02T01:08:09.985Z,22.63
2019-05-02T01:13:26.462Z,23.30
2019-05-02T01:18:45.899Z,26.80
2019-05-02T01:23:58.915Z,25.07
2019-05-02T01:29:29.749Z,23.13
2019-05-02T01:35:08.071Z,23.10
2019-05-02T01:40:22.818Z,23.93
2019-05-02T01:45:41.832Z,23.13
2019-05-02T01:51:14.303Z,28.62
2019-05-02T01:56:33.180Z,20.57
2019-05-02T02:01:53.092Z,21.67
2019-05-02T02:13:11.999Z,21.80
2019-05-02T02:19:03.962Z,24.33
2019-05-02T02:24:39.114Z,25.57
2019-05-02T02:29:50.149Z,22.90
2019-05-02T02:35:03.524Z,22.50
2019-05-02T02:40:15.068Z,23.50
2019-05-02T02:46:12.575Z,21.47
2019-05-02T02:51:31.332Z,23.53
2019-05-02T02:56:42.704Z,23.03
2019-05-02T03:02:08.734Z,24.23
2019-05-02T03:07:24.156Z,24.87
2019-05-02T03:12:57.466Z,26.40
2019-05-02T03:18:20.273Z,25.93
2019-05-02T03:23:35.263Z,27.20
2019-05-02T03:28:57.610Z,29.27
2019-05-02T03:34:13.405Z,27.17
2019-05-02T03:39:49.770Z,25.87
2019-05-02T03:45:08.726Z,29.17
2019-05-02T03:50:44.530Z,26.70
2019-05-02T03:56:23.894Z,25.77
2019-05-02T04:01:41.234Z,24.93
2019-05-02T04:07:01.051Z,24.77
2019-05-02T04:12:19.189Z,25.07
2019-05-02T04:17:37.372Z,24.17
2019-05-02T04:22:53.715Z,24.93
2019-05-02T04:28:12.084Z,24.30
2019-05-02T04:33:34.555Z,24.07
2019-05-02T04:38:48.753Z,24.57
2019-05-02T04:44:09.757Z,23.73
2019-05-02T04:49:51.521Z,27.77
2019-05-02T04:55:19.877Z,29.60
2019-05-02T05:00:30.151Z,27.37
2019-05-02T05:06:11.670Z,27.90
2019-05-02T05:11:40.365Z,27.53
2019-05-02T05:17:03.636Z,29.13
2019-05-02T05:22:44.171Z,29.97
2019-05-02T05:28:05.292Z,33.13
2019-05-02T05:33:37.829Z,41.65
2019-05-02T05:38:53.963Z,36.60
2019-05-02T05:44:23.168Z,35.20
2019-05-02T05:49:38.805Z,33.27
2019-05-02T05:54:50.826Z,36.00
2019-05-02T06:00:03.781Z,34.90
2019-05-02T06:05:17.498Z,33.57
2019-05-02T06:10:29.375Z,32.50
2019-05-02T06:15:40.734Z,34.77
2019-05-02T06:20:53.459Z,37.20
2019-05-02T06:26:07.795Z,37.97
2019-05-02T06:31:43.208Z,35.50
2019-05-02T06:37:13.539Z,37.23
2019-05-02T06:42:32.810Z,36.50
2019-05-02T06:47:43.460Z,35.97
2019-05-02T06:52:59.052Z,38.73
2019-05-02T06:58:11.351Z,36.47
2019-05-02T07:03:46.350Z,40.23
2019-05-02T07:09:20.814Z,38.17
2019-05-02T07:14:34.633Z,38.43
2019-05-02T07:19:52.332Z,40.37
2019-05-02T07:25:06.840Z,42.13
2019-05-02T07:30:30.103Z,40.00
2019-05-02T07:36:04.366Z,44.53
2019-05-02T07:41:16.201Z,40.10
2019-05-02T07:46:51.885Z,38.77
2019-05-02T07:52:28.832Z,36.40
2019-05-02T07:57:43.220Z,40.38
2019-05-02T08:02:57.966Z,32.73
2019-05-02T08:08:08.057Z,32.77
2019-05-02T08:13:26.653Z,33.93
2019-05-02T08:18:35.098Z,31.63
2019-05-02T08:23:45.323Z,32.13
2019-05-02T08:29:16.818Z,32.53
2019-05-02T08:34:36.411Z,29.67
2019-05-02T08:39:54.155Z,29.27
2019-05-02T08:45:07.530Z,30.73
2019-05-02T08:50:21.150Z,30.20
2019-05-02T08:55:41.299Z,31.33
2019-05-02T09:00:52.648Z,33.00
2019-05-02T09:06:07.240Z,34.30
2019-05-02T09:11:41.490Z,33.50
2019-05-02T09:17:06.005Z,33.40
2019-05-02T09:22:16.887Z,32.03
2019-05-02T09:27:26.197Z,32.10
2019-05-02T09:32:47.519Z,31.23
2019-05-02T09:38:03.581Z,30.95
2019-05-02T09:43:20.092Z,28.87
2019-05-02T09:48:33.825Z,29.75
2019-05-02T09:53:49.575Z,32.23
2019-05-02T09:59:23.314Z,32.73
2019-05-02T10:04:28.211Z,36.05
2019-05-02T10:09:42.777Z,33.28
2019-05-02T10:14:53.422Z,33.53
2019-05-02T10:20:07.497Z,32.63
2019-05-02T10:25:31.815Z,30.55
2019-05-02T10:30:52.578Z,29.52
2019-05-02T10:36:11.903Z,30.15
2019-05-02T10:47:07.079Z,32.93
2019-05-02T10:52:29.737Z,30.48
2019-05-02T10:57:46.950Z,32.58
2019-05-02T11:03:13.021Z,34.18
2019-05-02T11:08:54.162Z,34.20
2019-05-02T11:14:20.302Z,37.67
2019-05-02T11:20:12.330Z,37.67
2019-05-02T11:25:39.068Z,37.73
2019-05-02T11:30:49.483Z,38.80
2019-05-02T11:36:06.551Z,37.47
2019-05-02T11:41:24.848Z,39.47
2019-05-02T11:46:37.590Z,39.43
2019-05-02T11:51:56.984Z,41.30
2019-05-02T11:57:05.340Z,37.90
2019-05-02T12:02:31.984Z,43.70
2019-05-02T12:08:09.547Z,41.40
2019-05-02T12:13:25.243Z,43.07
2019-05-02T12:18:35.627Z,43.97
2019-05-02T12:23:52.621Z,48.97
2019-05-02T12:29:05.934Z,49.20
2019-05-02T12:34:26.208Z,52.50
2019-05-02T12:39:42.852Z,47.83
2019-05-02T12:44:56.297Z,52.67
2019-05-02T12:50:08.066Z,49.60
2019-05-02T12:55:22.069Z,56.40
2019-05-02T13:00:33.838Z,69.05
2019-05-02T13:06:07.350Z,57.90
2019-05-02T13:11:37.025Z,57.10
2019-05-02T13:16:55.681Z,54.97
2019-05-02T13:22:21.774Z,57.73
2019-05-02T13:27:43.320Z,56.80
2019-05-02T13:32:57.686Z,53.27
2019-05-02T13:38:15.909Z,53.60
2019-05-02T13:43:36.658Z,55.37
2019-05-02T13:48:52.496Z,49.27
2019-05-02T13:54:06.165Z,37.60
2019-05-02T13:59:28.033Z,33.10
2019-05-02T14:10:44.086Z,29.57
2019-05-02T14:15:59.635Z,31.50
2019-05-02T14:21:08.107Z,30.37
2019-05-02T14:26:29.644Z,29.17
2019-05-02T14:31:39.773Z,26.80
2019-05-02T14:37:11.830Z,23.27
2019-05-02T14:42:27.550Z,24.50
2019-05-02T14:48:21.450Z,24.27
2019-05-02T14:53:34.162Z,19.23
2019-05-02T14:58:49.582Z,19.90
2019-05-02T15:04:06.497Z,22.40
2019-05-02T15:09:16.410Z,21.00
2019-05-02T15:14:27.775Z,22.77
2019-05-02T15:19:42.752Z,21.53
2019-05-02T15:25:02.684Z,21.03
2019-05-02T15:30:13.344Z,22.43
2019-05-02T15:35:48.309Z,22.03
2019-05-02T15:41:04.014Z,21.60
2019-05-02T15:46:29.560Z,22.87
2019-05-02T15:51:43.679Z,22.73
2019-05-02T15:57:05.516Z,22.67
2019-05-02T16:02:17.698Z,24.83
2019-05-02T16:07:38.169Z,23.97
2019-05-02T16:12:53.165Z,24.73
2019-05-02T16:23:40.168Z,24.20
2019-05-02T16:29:02.828Z,23.23
2019-05-02T16:34:19.336Z,22.90
2019-05-02T16:39:28.956Z,23.00
2019-05-02T16:44:42.936Z,21.30
2019-05-02T16:50:27.546Z,20.73
2019-05-02T16:55:43.394Z,21.57
2019-05-02T17:01:02.252Z,19.37
2019-05-02T17:06:34.083Z,18.93
2019-05-02T17:11:48.460Z,17.00
2019-05-02T17:17:01.642Z,15.07
2019-05-02T17:22:16.740Z,13.87
2019-05-02T17:27:24.746Z,9.67
2019-05-02T17:33:16.320Z,8.27
2019-05-02T17:38:29.378Z,8.40
2019-05-02T17:43:43.467Z,7.60
2019-05-02T17:49:16.731Z,4.93
2019-05-02T17:54:49.133Z,5.70
2019-05-02T18:00:00.219Z,3.67
2019-05-02T18:05:34.059Z,3.23
2019-05-02T18:10:43.593Z,2.90
2019-05-02T18:15:55.223Z,2.33
2019-05-02T18:21:35.339Z,2.30
2019-05-02T18:27:12.717Z,2.30
2019-05-02T18:32:26.327Z,2.30
2019-05-02T18:37:45.056Z,1.57
2019-05-02T18:42:56.619Z,2.50
2019-05-02T18:48:22.861Z,2.50
2019-05-02T18:53:34.952Z,2.73
2019-05-02T18:58:48.219Z,2.13
2019-05-02T19:04:34.891Z,2.47
2019-05-02T19:09:50.358Z,2.17
2019-05-02T19:15:03.189Z,2.47
2019-05-02T19:20:33.354Z,2.20
2019-05-02T19:26:02.312Z,3.40
2019-05-02T19:31:12.677Z,3.00
2019-05-02T19:36:27.504Z,3.37
2019-05-02T19:41:43.399Z,2.57
2019-05-02T19:46:49.191Z,3.10
2019-05-02T19:52:02.249Z,3.30
2019-05-02T19:57:17.067Z,3.13
2019-05-02T20:02:52.169Z,2.50
2019-05-02T20:08:09.632Z,2.83
2019-05-02T20:13:20.372Z,2.70
2019-05-02T20:18:34.842Z,2.17
2019-05-02T20:23:48.544Z,3.00
2019-05-02T20:28:56.187Z,2.27
2019-05-02T20:34:05.352Z,2.53
2019-05-02T20:39:13.939Z,2.60
2019-05-02T20:44:28.131Z,2.83
2019-05-02T20:49:42.333Z,3.07
2019-05-02T20:54:52.349Z,2.97
2019-05-02T21:00:01.676Z,2.70
2019-05-02T21:05:16.524Z,3.23
2019-05-02T21:10:41.730Z,3.20
2019-05-02T21:15:53.276Z,3.90
2019-05-02T21:21:06.258Z,3.90
2019-05-02T21:26:15.140Z,3.73
2019-05-02T21:31:26.468Z,4.27
2019-05-02T21:36:37.024Z,3.53
2019-05-02T21:41:51.677Z,3.87
2019-05-02T21:47:09.328Z,4.00
2019-05-02T21:52:42.341Z,4.07
2019-05-02T21:58:12.164Z,4.13
2019-05-02T22:03:27.128Z,5.77
2019-05-02T22:08:42.251Z,4.27
2019-05-02T22:13:51.657Z,5.43
2019-05-02T22:19:02.882Z,4.90
2019-05-02T22:24:15.611Z,5.17
2019-05-02T22:29:32.269Z,4.30
2019-05-02T22:34:45.207Z,4.53
2019-05-02T22:40:04.149Z,4.27
2019-05-02T22:45:17.949Z,4.40
2019-05-02T22:51:12.002Z,3.73
2019-05-02T22:56:23.869Z,4.50
2019-05-02T23:01:35.949Z,4.43
2019-05-02T23:06:47.728Z,5.13
2019-05-02T23:12:07.598Z,4.63
2019-05-02T23:17:20.312Z,5.20
2019-05-02T23:22:32.382Z,4.80
2019-05-02T23:28:02.378Z,4.73
2019-05-02T23:33:23.379Z,5.57
2019-05-02T23:38:32.337Z,4.77
2019-05-02T23:43:47.691Z,5.63
2019-05-02T23:49:03.007Z,5.60
2019-05-02T23:54:13.086Z,5.77
2019-05-02T23:59:32.055Z,4.50
